Time;durP1;ratioP1;P1;durP2;ratioP2;P2;SDS_P1;SDS_P2;PMS_P1;PMS_P2;Temp;Humidity;BMP_temperature;BMP_pressure;BME280_temperature;BME280_humidity;BME280_pressure;Samples;Min_cycle;Max_cycle;Signal;HPM_P1;HPM_P2
2023/04/11 00:00:18;;;;;;;6.70;1.67;;;15.50;1.00;;;;;;4995162;28;20084;-34
2023/04/11 00:02:45;;;;;;;9.38;1.52;;;15.60;1.00;;;;;;4994370;28;20088;-34
2023/04/11 00:05:12;;;;;;;5.68;1.70;;;15.50;1.00;;;;;;4994967;28;20121;-34
2023/04/11 00:07:39;;;;;;;9.40;2.15;;;15.50;1.00;;;;;;4995095;28;20042;-34
2023/04/11 00:10:07;;;;;;;6.15;1.63;;;15.50;1.00;;;;;;4994900;28;20042;-34
2023/04/11 00:12:33;;;;;;;5.15;1.10;;;15.50;1.00;;;;;;4994497;28;20108;-34
2023/04/11 00:15:00;;;;;;;8.20;1.52;;;15.50;1.00;;;;;;4994302;28;20145;-34
2023/04/11 00:17:30;;;;;;;5.03;1.50;;;15.50;1.00;;;;;;4994796;28;20046;-34
2023/04/11 00:20:00;;;;;;;8.45;1.55;;;15.50;1.00;;;;;;4994697;28;20077;-34
2023/04/11 00:22:27;;;;;;;9.13;1.40;;;15.50;1.00;;;;;;4994502;28;20045;-34
2023/04/11 00:24:54;;;;;;;2.88;1.00;;;15.50;1.00;;;;;;4994260;28;20046;-34
2023/04/11 00:27:21;;;;;;;6.47;1.30;;;15.50;1.00;;;;;;4994733;28;20053;-34
2023/04/11 00:29:47;;;;;;;6.45;0.90;;;15.50;1.00;;;;;;4994608;28;20409;-35
2023/04/11 00:32:14;;;;;;;3.03;1.45;;;15.50;1.00;;;;;;4977050;28;20050;-34
2023/04/11 00:34:41;;;;;;;5.90;1.23;;;15.50;1.00;;;;;;4994121;28;20410;-34
2023/04/11 00:37:09;;;;;;;5.60;1.15;;;15.50;1.00;;;;;;4994361;28;20042;-34
2023/04/11 00:39:37;;;;;;;7.65;1.80;;;15.50;1.00;;;;;;4976949;28;20533;-34
2023/04/11 00:42:05;;;;;;;2.83;0.77;;;15.50;1.00;;;;;;4994674;28;20393;-34
2023/04/11 00:44:34;;;;;;;4.03;0.90;;;15.50;1.00;;;;;;4976170;28;20142;-34
2023/04/11 00:47:02;;;;;;;7.03;1.95;;;15.40;1.00;;;;;;4994231;28;20054;-34
2023/04/11 00:49:30;;;;;;;5.57;1.63;;;15.50;1.00;;;;;;4994324;28;20054;-34
2023/04/11 00:51:58;;;;;;;4.82;1.30;;;15.50;1.00;;;;;;4993054;28;20101;-34
2023/04/11 00:54:29;;;;;;;2.75;0.82;;;15.50;1.00;;;;;;4993441;28;20093;-34
2023/04/11 00:56:58;;;;;;;4.45;0.75;;;15.50;1.00;;;;;;4994101;28;20410;-34
2023/04/11 00:59:30;;;;;;;4.95;1.13;;;15.40;1.00;;;;;;4976614;28;20458;-34
2023/04/11 01:01:57;;;;;;;4.32;0.90;;;15.50;1.00;;;;;;4994091;28;20042;-35
2023/04/11 01:04:25;;;;;;;1.20;0.60;;;15.40;1.00;;;;;;4993030;28;20042;-35
2023/04/11 01:06:58;;;;;;;3.47;1.13;;;15.40;1.00;;;;;;4993974;28;20553;-35
2023/04/11 01:09:27;;;;;;;5.90;1.75;;;15.40;1.00;;;;;;4976680;28;20512;-35
2023/04/11 01:11:55;;;;;;;4.05;0.93;;;15.40;1.00;;;;;;4976308;28;20046;-35
2023/04/11 01:14:24;;;;;;;5.03;0.85;;;15.40;1.00;;;;;;4975336;28;20047;-35
2023/04/11 01:16:51;;;;;;;5.25;0.85;;;15.40;1.00;;;;;;4976100;28;20046;-35
2023/04/11 01:19:20;;;;;;;3.35;0.70;;;15.40;1.00;;;;;;4976304;28;20405;-35
2023/04/11 01:21:48;;;;;;;2.95;0.43;;;15.40;1.00;;;;;;4976142;28;20046;-35
2023/04/11 01:24:15;;;;;;;2.97;0.60;;;15.40;1.00;;;;;;4975291;28;20568;-35
2023/04/11 01:26:42;;;;;;;3.13;0.75;;;15.40;1.00;;;;;;4993693;28;20130;-35
2023/04/11 01:29:10;;;;;;;3.92;0.80;;;15.40;1.00;;;;;;4993398;28;20087;-35
2023/04/11 01:31:37;;;;;;;4.45;1.10;;;15.40;1.00;;;;;;4976007;28;20057;-35
2023/04/11 01:34:04;;;;;;;5.60;1.15;;;15.40;1.00;;;;;;4975148;28;20079;-34
2023/04/11 01:36:31;;;;;;;7.85;1.83;;;15.40;1.00;;;;;;4993414;28;20383;-35
2023/04/11 01:38:58;;;;;;;2.85;0.75;;;15.40;1.00;;;;;;4975804;28;20050;-35
2023/04/11 01:41:28;;;;;;;4.07;1.08;;;15.40;1.00;;;;;;4975856;28;20046;-35
2023/04/11 01:43:55;;;;;;;6.32;1.02;;;15.40;1.00;;;;;;4992304;28;20108;-35
2023/04/11 01:46:24;;;;;;;3.58;0.77;;;15.40;1.00;;;;;;4993189;28;20391;-35
2023/04/11 01:48:55;;;;;;;3.45;0.93;;;15.40;1.00;;;;;;4975638;28;20085;-34
2023/04/11 01:51:22;;;;;;;4.20;0.70;;;15.40;1.00;;;;;;4975732;28;20054;-35
2023/04/11 01:53:49;;;;;;;5.63;1.13;;;15.40;1.00;;;;;;4974788;28;20541;-35
2023/04/11 01:56:16;;;;;;;2.72;0.80;;;15.40;1.00;;;;;;4992997;28;20453;-35
2023/04/11 01:58:45;;;;;;;7.65;1.33;;;15.40;1.00;;;;;;4975506;28;20054;-35
2023/04/11 02:01:12;;;;;;;2.00;0.73;;;15.40;1.00;;;;;;4975447;28;20042;-35
2023/04/11 02:03:39;;;;;;;4.22;1.00;;;15.40;1.00;;;;;;4974373;28;20463;-35
2023/04/11 02:06:06;;;;;;;4.38;0.80;;;15.40;1.00;;;;;;4975451;28;20050;-35
2023/04/11 02:08:32;;;;;;;6.05;0.98;;;15.40;1.00;;;;;;4975419;28;20078;-35
2023/04/11 02:10:59;;;;;;;1.52;0.90;;;15.30;1.00;;;;;;4992757;28;20042;-35
2023/04/11 02:13:26;;;;;;;4.70;0.70;;;15.30;1.00;;;;;;4974540;28;20050;-36
2023/04/11 02:15:52;;;;;;;3.58;0.90;;;15.30;1.00;;;;;;4992814;28;20052;-35
2023/04/11 02:18:20;;;;;;;6.32;1.15;;;15.30;1.00;;;;;;4975252;28;20414;-35
2023/04/11 02:20:47;;;;;;;2.05;0.68;;;15.30;1.00;;;;;;4992629;28;20077;-35
2023/04/11 02:23:15;;;;;;;7.10;1.30;;;15.30;1.00;;;;;;4991895;28;20046;-35
2023/04/11 02:25:41;;;;;;;6.68;2.13;;;15.30;1.00;;;;;;4992667;28;20045;-35
2023/04/11 02:28:08;;;;;;;7.30;0.90;;;15.30;1.00;;;;;;4975197;28;20046;-35
2023/04/11 02:30:35;;;;;;;8.02;1.00;;;15.30;1.00;;;;;;4975134;28;20506;-35
2023/04/11 02:33:02;;;;;;;6.47;0.90;;;15.30;1.00;;;;;;4991850;28;20399;-35
2023/04/11 02:35:29;;;;;;;3.75;1.10;;;15.30;1.00;;;;;;4959054;28;20422;-35
2023/04/11 02:37:59;;;;;;;4.63;0.60;;;15.30;1.00;;;;;;4992418;28;20057;-35
2023/04/11 02:40:26;;;;;;;6.50;1.15;;;15.30;1.00;;;;;;4992605;28;20453;-35
2023/04/11 02:42:53;;;;;;;7.03;0.95;;;15.30;1.00;;;;;;4991762;28;20046;-35
2023/04/11 02:45:20;;;;;;;3.08;1.00;;;15.30;1.00;;;;;;4992436;28;20038;-35
2023/04/11 02:47:47;;;;;;;5.25;1.35;;;15.30;1.00;;;;;;4975096;28;20141;-35
2023/04/11 02:50:14;;;;;;;5.70;1.00;;;15.30;1.00;;;;;;4974969;28;20137;-35
2023/04/11 02:52:48;;;;;;;3.25;0.47;;;15.20;1.00;;;;;;4974139;28;20055;-35
2023/04/11 02:55:18;;;;;;;7.45;1.25;;;15.20;1.00;;;;;;4974896;28;20434;-35
2023/04/11 02:57:45;;;;;;;4.25;0.45;;;15.20;1.00;;;;;;4974888;28;20056;-34
2023/04/11 03:00:15;;;;;;;4.45;0.70;;;15.20;1.00;;;;;;4974429;28;20043;-35
2023/04/11 03:02:48;;;;;;;3.85;0.82;;;15.20;1.00;;;;;;4974160;28;20410;-35
2023/04/11 03:05:19;;;;;;;6.60;1.42;;;15.20;1.00;;;;;;4992277;28;20073;-35
2023/04/11 03:07:48;;;;;;;4.28;1.35;;;15.20;1.00;;;;;;4974712;28;20506;-35
2023/04/11 03:10:15;;;;;;;6.43;0.60;;;15.20;1.00;;;;;;4974819;28;20076;-35
2023/04/11 03:12:42;;;;;;;7.10;1.85;;;15.20;1.00;;;;;;4974360;28;20077;-35
2023/04/11 03:15:14;;;;;;;2.80;0.80;;;15.20;1.00;;;;;;4975768;28;20050;-36
2023/04/11 03:17:41;;;;;;;4.25;0.93;;;15.20;1.00;;;;;;4995790;28;20035;-35
2023/04/11 03:20:12;;;;;;;3.20;1.05;;;15.20;1.00;;;;;;4978481;28;20049;-35
2023/04/11 03:22:47;;;;;;;5.18;0.98;;;15.20;1.00;;;;;;4977751;28;20418;-35
2023/04/11 03:25:15;;;;;;;3.35;0.85;;;15.20;1.00;;;;;;4978327;28;20078;-35
2023/04/11 03:27:44;;;;;;;4.68;1.60;;;15.20;1.00;;;;;;4978211;28;20058;-35
2023/04/11 03:30:12;;;;;;;2.38;0.70;;;15.20;1.00;;;;;;4978153;28;20047;-35
2023/04/11 03:32:41;;;;;;;3.85;1.08;;;15.20;1.00;;;;;;4995364;28;20407;-35
2023/04/11 03:35:10;;;;;;;2.38;0.50;;;15.20;1.00;;;;;;4978080;28;20465;-35
2023/04/11 03:37:43;;;;;;;4.20;0.98;;;15.20;1.00;;;;;;4978085;28;20470;-35
2023/04/11 03:40:10;;;;;;;3.83;1.30;;;15.20;1.00;;;;;;4978064;28;20417;-35
2023/04/11 03:42:41;;;;;;;6.18;1.48;;;15.20;1.00;;;;;;4977169;28;20512;-35
2023/04/11 03:45:12;;;;;;;3.47;1.08;;;15.20;1.00;;;;;;4977888;28;20061;-35
2023/04/11 03:47:39;;;;;;;2.17;0.80;;;15.20;1.00;;;;;;4961931;28;20141;-35
2023/04/11 03:50:08;;;;;;;1.92;0.63;;;15.20;1.00;;;;;;4977898;28;20051;-35
2023/04/11 03:52:41;;;;;;;5.30;0.75;;;15.10;1.00;;;;;;4977171;28;20045;-35
2023/04/11 03:55:11;;;;;;;4.88;1.08;;;15.10;1.00;;;;;;4977697;28;20050;-35
2023/04/11 03:57:38;;;;;;;5.28;0.98;;;15.10;1.00;;;;;;4977703;28;20136;-35
2023/04/11 04:00:06;;;;;;;5.18;1.05;;;15.10;1.00;;;;;;4977767;28;20046;-35
2023/04/11 04:02:40;;;;;;;6.78;1.13;;;15.10;1.00;;;;;;4994477;28;20046;-35
2023/04/11 04:05:11;;;;;;;4.25;0.57;;;15.10;1.00;;;;;;4977543;28;20053;-35
2023/04/11 04:07:39;;;;;;;4.68;1.05;;;15.10;1.00;;;;;;4977583;28;20109;-35
2023/04/11 04:10:26;;;;;;;4.28;1.23;;;15.10;1.00;;;;;;4981154;28;20493;-35
2023/04/11 04:12:54;;;;;;;2.13;0.60;;;15.10;1.00;;;;;;4976611;28;20042;-35
2023/04/11 04:15:31;;;;;;;4.65;1.02;;;15.10;1.00;;;;;;4996865;23;20056;-36
2023/04/11 04:18:00;;;;;;;11.43;1.75;;;15.10;1.00;;;;;;4987822;28;20096;-36
2023/04/11 04:20:40;;;;;;;21.95;1.45;;;15.10;1.00;;;;;;4996434;28;20045;-36
2023/04/11 04:23:07;;;;;;;6.45;0.85;;;15.10;1.00;;;;;;4995953;28;20053;-36
2023/04/11 04:25:49;;;;;;;6.68;1.13;;;15.10;1.00;;;;;;4996582;28;20100;-36
2023/04/11 04:28:21;;;;;;;8.43;2.30;;;15.10;1.00;;;;;;4996685;28;20065;-36
2023/04/11 04:30:52;;;;;;;8.35;1.13;;;15.10;1.00;;;;;;5014514;28;20053;-36
2023/04/11 04:33:22;;;;;;;3.08;1.08;;;15.10;1.00;;;;;;4995802;28;20073;-37
2023/04/11 04:35:50;;;;;;;3.58;1.13;;;15.10;1.00;;;;;;4996492;28;20054;-37
2023/04/11 04:38:18;;;;;;;5.55;1.00;;;15.00;1.00;;;;;;4996487;28;20034;-36
2023/04/11 04:40:53;;;;;;;9.23;1.08;;;15.00;1.00;;;;;;4996278;28;20204;-36
2023/04/11 04:43:23;;;;;;;7.43;1.65;;;15.00;1.00;;;;;;4995607;28;20563;-37
2023/04/11 04:46:00;;;;;;;3.95;0.70;;;15.00;1.00;;;;;;4996445;28;20077;-54
2023/04/11 04:48:34;;;;;;;4.28;1.33;;;15.00;1.00;;;;;;4996320;28;20099;-37
2023/04/11 04:51:03;;;;;;;3.15;0.60;;;15.00;1.00;;;;;;4996118;28;20054;-37
2023/04/11 04:53:37;;;;;;;3.60;1.67;;;15.00;1.00;;;;;;4995340;28;20050;-52
2023/04/11 04:56:05;;;;;;;10.73;1.08;;;15.00;1.00;;;;;;4996148;28;20418;-37
2023/04/11 04:58:36;;;;;;;3.90;0.90;;;15.00;1.00;;;;;;4983239;28;20072;-37
2023/04/11 05:01:07;;;;;;;4.03;1.70;;;15.00;1.00;;;;;;4980589;28;20474;-37
2023/04/11 05:03:37;;;;;;;5.75;1.05;;;15.00;1.00;;;;;;4980464;28;20472;-37
2023/04/11 05:06:09;;;;;;;5.30;1.27;;;15.00;1.00;;;;;;4996217;28;20041;-46
2023/04/11 05:08:36;;;;;;;4.25;0.85;;;14.90;1.00;;;;;;4995720;28;20096;-41
2023/04/11 05:11:06;;;;;;;4.43;0.80;;;14.90;1.00;;;;;;4995767;28;20053;-44
2023/04/11 05:13:34;;;;;;;6.75;1.08;;;14.90;1.00;;;;;;4995051;28;20524;-42
2023/04/11 05:16:03;;;;;;;7.28;1.50;;;14.90;1.00;;;;;;4995726;28;20108;-46
2023/04/11 05:18:30;;;;;;;8.95;1.20;;;14.90;1.00;;;;;;5013083;28;20120;-54
2023/04/11 05:20:57;;;;;;;3.83;1.08;;;14.90;1.00;;;;;;4995656;28;20518;-43
2023/04/11 05:23:30;;;;;;;4.55;1.05;;;14.90;1.00;;;;;;4994818;28;20149;-48
2023/04/11 05:26:00;;;;;;;8.32;0.77;;;14.90;1.00;;;;;;4995616;28;20042;-40
2023/04/11 05:28:32;;;;;;;5.90;1.67;;;14.90;1.00;;;;;;4995502;28;20465;-37
2023/04/11 05:31:02;;;;;;;10.27;2.97;;;14.90;1.00;;;;;;4995448;28;20146;-47
2023/04/11 05:33:29;;;;;;;4.32;1.20;;;14.90;1.00;;;;;;4994727;28;20370;-45
2023/04/11 05:35:57;;;;;;;7.05;1.67;;;14.90;1.00;;;;;;4995444;28;20057;-37
2023/04/11 05:38:24;;;;;;;2.67;1.15;;;14.90;1.00;;;;;;5012264;28;20115;-42
2023/04/11 05:40:51;;;;;;;10.13;1.20;;;14.90;1.00;;;;;;4995224;28;20085;-60
2023/04/11 05:43:18;;;;;;;4.82;1.13;;;14.90;1.00;;;;;;5011932;28;20041;-38
2023/04/11 05:45:46;;;;;;;2.70;0.82;;;14.90;1.00;;;;;;4995260;28;20053;-38
2023/04/11 05:48:17;;;;;;;5.13;0.90;;;14.90;1.00;;;;;;4995130;28;20133;-42
2023/04/11 05:50:45;;;;;;;5.88;0.90;;;14.90;1.00;;;;;;4995198;28;20077;-47
2023/04/11 05:53:12;;;;;;;2.72;1.10;;;14.90;1.00;;;;;;5011793;28;20041;-41
2023/04/11 05:55:38;;;;;;;4.72;0.93;;;14.90;1.00;;;;;;4995146;28;20050;-45
2023/04/11 05:58:05;;;;;;;2.85;0.60;;;14.90;1.00;;;;;;5012511;28;20121;-55
2023/04/11 06:00:32;;;;;;;4.57;0.68;;;14.90;1.00;;;;;;4995098;28;20075;-56
2023/04/11 06:02:59;;;;;;;5.25;1.20;;;14.90;1.00;;;;;;5011698;28;20057;-38
2023/04/11 06:05:30;;;;;;;5.82;0.90;;;14.90;1.00;;;;;;5012574;28;20088;-53
2023/04/11 06:07:58;;;;;;;6.25;0.95;;;14.90;1.00;;;;;;5012470;28;20048;-38
2023/04/11 06:10:25;;;;;;;4.45;1.20;;;15.00;1.00;;;;;;5012414;28;20042;-42
2023/04/11 06:12:52;;;;;;;3.17;0.85;;;15.10;1.00;;;;;;5011780;28;20473;-49
2023/04/11 06:15:20;;;;;;;4.72;1.00;;;15.20;1.00;;;;;;5012280;28;20129;-50
2023/04/11 06:17:47;;;;;;;4.07;1.00;;;15.30;1.00;;;;;;5012460;28;20100;-37
2023/04/11 06:20:15;;;;;;;3.83;1.13;;;15.40;1.00;;;;;;5012220;28;20477;-40
2023/04/11 06:22:42;;;;;;;4.65;1.10;;;15.50;1.00;;;;;;5011502;28;20042;-37
2023/04/11 06:25:09;;;;;;;8.10;1.85;;;15.60;1.00;;;;;;5012051;28;20130;-52
2023/04/11 06:27:36;;;;;;;2.95;0.93;;;15.70;1.00;;;;;;5012371;28;20395;-47
2023/04/11 06:30:04;;;;;;;5.28;1.55;;;15.80;1.00;;;;;;5012159;28;20065;-48
2023/04/11 06:32:30;;;;;;;4.57;1.00;;;15.90;1.00;;;;;;5011854;28;20050;-50
2023/04/11 06:34:57;;;;;;;4.68;1.60;;;15.90;1.00;;;;;;5011722;28;20458;-45
2023/04/11 06:37:24;;;;;;;5.63;1.45;;;16.00;1.00;;;;;;5011989;28;20073;-57
2023/04/11 06:39:51;;;;;;;2.75;0.93;;;16.10;1.00;;;;;;5011934;28;20125;-43
2023/04/11 06:42:18;;;;;;;3.55;1.08;;;16.20;1.00;;;;;;5011800;28;20045;-46
2023/04/11 06:44:45;;;;;;;4.70;1.10;;;16.20;1.00;;;;;;5011661;28;20414;-43
2023/04/11 06:47:12;;;;;;;6.75;1.38;;;16.30;1.00;;;;;;5011884;28;20100;-38
2023/04/11 06:49:40;;;;;;;4.35;0.82;;;16.20;1.00;;;;;;5014103;28;20053;-47
2023/04/11 06:52:06;;;;;;;7.70;1.40;;;16.30;1.00;;;;;;5015764;28;20456;-42
2023/04/11 06:54:33;;;;;;;7.85;1.65;;;16.30;1.00;;;;;;5015206;28;20125;-38
2023/04/11 06:57:01;;;;;;;5.32;1.25;;;16.30;1.00;;;;;;5016062;28;20437;-38
2023/04/11 06:59:28;;;;;;;4.95;0.80;;;16.30;1.00;;;;;;5015785;28;20500;-48
2023/04/11 07:01:55;;;;;;;4.90;1.10;;;16.30;1.00;;;;;;5015883;28;20053;-41
2023/04/11 07:04:21;;;;;;;5.90;1.30;;;16.40;1.00;;;;;;5014929;28;20042;-45
2023/04/11 07:06:49;;;;;;;3.67;0.90;;;16.30;1.00;;;;;;5015679;28;20042;-36
2023/04/11 07:09:16;;;;;;;5.90;1.27;;;16.30;1.00;;;;;;5015984;28;20128;-38
2023/04/11 07:11:43;;;;;;;4.50;0.90;;;16.30;1.00;;;;;;5015656;28;20042;-38
2023/04/11 07:14:10;;;;;;;6.18;1.48;;;16.30;1.00;;;;;;5014707;28;20084;-38
2023/04/11 07:16:36;;;;;;;4.30;1.35;;;16.30;1.00;;;;;;5015669;28;20076;-36
2023/04/11 07:19:03;;;;;;;2.05;0.70;;;16.30;1.00;;;;;;5015884;28;20049;-42
2023/04/11 07:21:31;;;;;;;3.22;0.60;;;16.30;1.00;;;;;;5015722;28;20383;-38
2023/04/11 07:23:59;;;;;;;8.75;1.33;;;16.30;1.00;;;;;;5014572;28;20069;-39
2023/04/11 07:26:30;;;;;;;3.63;0.70;;;16.30;1.00;;;;;;5015381;28;20142;-37
2023/04/11 07:28:58;;;;;;;6.35;0.90;;;16.30;1.00;;;;;;5015480;28;20084;-45
2023/04/11 07:31:26;;;;;;;7.72;2.05;;;16.20;1.00;;;;;;5015280;28;20124;-38
2023/04/11 07:33:52;;;;;;;6.70;1.10;;;16.30;1.00;;;;;;5014365;28;20050;-49
2023/04/11 07:36:20;;;;;;;3.90;0.90;;;16.20;1.00;;;;;;5015309;28;20042;-50
2023/04/11 07:38:47;;;;;;;2.85;0.77;;;16.20;1.00;;;;;;5015119;28;20497;-45
2023/04/11 07:41:15;;;;;;;7.05;1.33;;;16.20;1.00;;;;;;5015126;28;20069;-51
2023/04/11 07:43:42;;;;;;;4.82;0.90;;;16.20;1.00;;;;;;5014138;28;20505;-45
2023/04/11 07:46:09;;;;;;;6.28;1.30;;;16.20;1.00;;;;;;5014964;28;20038;-38
2023/04/11 07:48:35;;;;;;;9.00;1.67;;;16.20;1.00;;;;;;5014965;28;20056;-43
2023/04/11 07:51:02;;;;;;;7.15;1.55;;;16.20;1.00;;;;;;5015097;28;20073;-45
2023/04/11 07:53:31;;;;;;;16.10;1.80;;;16.20;1.00;;;;;;5014288;28;20394;-49
2023/04/11 07:55:58;;;;;;;7.68;1.80;;;16.20;1.00;;;;;;5014818;28;20038;-38
2023/04/11 07:58:25;;;;;;;11.55;3.10;;;16.10;1.00;;;;;;5014693;28;20092;-43
2023/04/11 08:00:52;;;;;;;14.40;2.00;;;16.10;1.00;;;;;;5013807;28;20478;-38
2023/04/11 08:03:19;;;;;;;15.93;2.33;;;16.00;1.00;;;;;;5013835;28;20061;-37
2023/04/11 08:05:46;;;;;;;6.40;1.38;;;15.90;1.00;;;;;;5014577;28;20046;-38
2023/04/11 08:08:13;;;;;;;9.23;1.67;;;15.90;1.00;;;;;;5014750;28;20049;-37
2023/04/11 08:10:40;;;;;;;10.25;1.60;;;15.90;1.00;;;;;;5014746;28;20050;-38
2023/04/11 08:13:07;;;;;;;9.13;1.95;;;15.90;1.00;;;;;;5014010;28;20053;-37
2023/04/11 08:15:35;;;;;;;13.70;2.45;;;15.90;1.00;;;;;;4981486;28;20064;-38
2023/04/11 08:18:04;;;;;;;8.25;1.73;;;16.00;1.00;;;;;;4994310;28;20058;-37
2023/04/11 08:20:30;;;;;;;9.57;2.20;;;15.90;1.00;;;;;;4995012;28;20397;-40
2023/04/11 08:22:58;;;;;;;10.10;2.17;;;15.90;1.00;;;;;;4993890;28;20085;-39
2023/04/11 08:25:25;;;;;;;8.55;1.48;;;15.90;1.00;;;;;;4994628;28;20129;-37
2023/04/11 08:27:52;;;;;;;9.77;2.33;;;15.90;1.00;;;;;;4994565;28;20141;-37
2023/04/11 08:30:19;;;;;;;10.32;1.95;;;15.90;1.00;;;;;;4994638;28;20057;-37
2023/04/11 08:32:46;;;;;;;8.40;1.63;;;15.90;1.00;;;;;;4993768;28;20045;-38
2023/04/11 08:35:13;;;;;;;14.20;1.35;;;15.90;1.00;;;;;;4994437;28;20052;-38
2023/04/11 08:37:40;;;;;;;11.65;2.17;;;15.90;1.00;;;;;;4994400;28;20042;-39
2023/04/11 08:40:07;;;;;;;6.82;1.23;;;15.90;1.00;;;;;;4994347;28;20108;-38
2023/04/11 08:42:34;;;;;;;9.77;1.52;;;15.80;1.00;;;;;;4993857;28;20121;-38
2023/04/11 08:45:07;;;;;;;7.32;1.77;;;15.80;1.00;;;;;;4994012;28;20487;-37
2023/04/11 08:47:35;;;;;;;5.10;1.23;;;15.80;1.00;;;;;;4994289;28;20489;-41
2023/04/11 08:50:04;;;;;;;8.38;0.90;;;15.80;1.00;;;;;;4982360;28;20090;-37
2023/04/11 08:52:32;;;;;;;7.10;1.55;;;15.80;1.00;;;;;;4974429;28;20038;-37
2023/04/11 08:55:00;;;;;;;10.13;1.27;;;15.80;1.00;;;;;;4974167;28;20043;-43
2023/04/11 08:57:31;;;;;;;6.35;1.33;;;15.80;1.00;;;;;;4974752;28;20053;-43
2023/04/11 09:00:09;;;;;;;6.35;1.40;;;15.80;1.00;;;;;;4974521;28;20070;-43
2023/04/11 09:02:56;;;;;;;9.30;1.77;;;15.80;1.00;;;;;;4974154;28;20047;-37
2023/04/11 09:05:30;;;;;;;8.60;1.60;;;15.80;1.00;;;;;;4974428;28;20039;-52
2023/04/11 09:07:59;;;;;;;7.88;1.10;;;15.80;1.00;;;;;;4974513;28;20530;-38
2023/04/11 09:10:26;;;;;;;5.88;1.70;;;15.70;1.00;;;;;;4974497;28;20057;-37
2023/04/11 09:12:54;;;;;;;10.85;2.25;;;15.70;1.00;;;;;;4972767;28;20518;-37
2023/04/11 09:15:23;;;;;;;4.75;1.05;;;15.70;1.00;;;;;;4974162;28;20126;-37
2023/04/11 09:17:51;;;;;;;6.72;1.23;;;15.70;1.00;;;;;;4974243;28;20043;-37
2023/04/11 09:20:25;;;;;;;7.55;2.17;;;15.70;1.00;;;;;;4974173;28;20043;-37
2023/04/11 09:22:53;;;;;;;3.47;1.00;;;15.70;1.00;;;;;;4973578;28;20483;-37
2023/04/11 09:25:22;;;;;;;15.20;1.50;;;15.70;1.00;;;;;;4974051;28;20563;-37
2023/04/11 09:28:05;;;;;;;7.82;1.70;;;15.70;1.00;;;;;;4974548;28;20062;-37
2023/04/11 09:30:32;;;;;;;5.80;0.90;;;15.60;1.00;;;;;;4974063;28;20046;-37
2023/04/11 09:33:18;;;;;;;5.75;1.05;;;15.70;1.00;;;;;;4973152;28;20042;-37
2023/04/11 09:35:48;;;;;;;8.95;1.80;;;15.60;1.00;;;;;;4973979;28;20089;-37
2023/04/11 09:38:33;;;;;;;4.72;1.52;;;15.60;1.00;;;;;;4973838;28;20050;-37
2023/04/11 09:41:01;;;;;;;5.45;0.95;;;15.60;1.00;;;;;;4973800;28;20199;-37
2023/04/11 09:43:52;;;;;;;10.45;1.40;;;15.60;1.00;;;;;;4972991;28;20038;-37
2023/04/11 09:46:19;;;;;;;4.97;1.40;;;15.60;1.00;;;;;;4973990;28;20065;-37
2023/04/11 09:48:48;;;;;;;7.85;1.52;;;15.60;1.00;;;;;;4973737;28;20503;-37
2023/04/11 09:51:16;;;;;;;5.10;1.42;;;15.60;1.00;;;;;;4956217;28;20514;-37
2023/04/11 09:54:02;;;;;;;6.40;1.10;;;15.60;1.00;;;;;;4972792;28;20058;-37
2023/04/11 09:56:30;;;;;;;6.00;1.02;;;15.60;1.00;;;;;;4973699;28;20042;-37
2023/04/11 09:58:59;;;;;;;3.92;1.38;;;15.60;1.00;;;;;;4973462;28;20043;-37
2023/04/11 10:01:26;;;;;;;9.30;1.70;;;15.60;1.00;;;;;;4973588;28;20039;-37
2023/04/11 10:03:54;;;;;;;6.30;1.25;;;15.60;1.00;;;;;;4972600;28;20069;-37
2023/04/11 10:06:43;;;;;;;4.95;1.17;;;15.60;1.00;;;;;;4956557;28;20123;-37
2023/04/11 10:09:12;;;;;;;5.20;1.27;;;15.60;1.00;;;;;;4973516;28;20038;-37
2023/04/11 10:11:43;;;;;;;3.15;0.70;;;15.60;1.00;;;;;;4973853;28;20070;-37
2023/04/11 10:14:38;;;;;;;4.28;1.10;;;15.60;1.00;;;;;;4991075;23;20049;-35
2023/04/11 10:17:16;;;;;;;4.05;1.02;;;15.60;1.00;;;;;;5051856;28;20485;-35
2023/04/11 10:19:50;;;;;;;6.97;0.80;;;15.60;1.00;;;;;;5052369;28;20045;-35
2023/04/11 10:22:42;;;;;;;6.50;1.50;;;15.70;1.00;;;;;;5051511;28;20488;-35
2023/04/11 10:25:23;;;;;;;4.15;1.00;;;15.70;1.00;;;;;;5051563;28;20045;-35
2023/04/11 10:27:53;;;;;;;6.25;1.13;;;15.70;1.00;;;;;;5051906;28;20048;-35
2023/04/11 10:30:38;;;;;;;4.00;1.15;;;15.70;1.00;;;;;;5051937;28;20041;-35
2023/04/11 10:33:17;;;;;;;6.43;1.70;;;15.70;1.00;;;;;;5051029;28;20060;-35
2023/04/11 10:36:02;;;;;;;6.30;1.20;;;15.70;1.00;;;;;;5050680;28;20496;-35
2023/04/11 10:38:47;;;;;;;5.30;1.63;;;15.70;1.00;;;;;;5051803;28;20045;-35
2023/04/11 10:41:32;;;;;;;3.53;1.30;;;15.80;1.00;;;;;;5051599;28;20155;-35
2023/04/11 10:44:17;;;;;;;3.58;1.63;;;15.80;1.00;;;;;;5050954;28;20443;-35
2023/04/11 10:46:46;;;;;;;7.95;1.08;;;15.70;1.00;;;;;;5051493;28;20045;-35
2023/04/11 10:49:34;;;;;;;6.45;1.25;;;15.80;1.00;;;;;;5051225;28;20044;-35
2023/04/11 10:52:21;;;;;;;6.10;1.48;;;15.80;1.00;;;;;;5051613;28;20072;-35
2023/04/11 10:54:52;;;;;;;5.50;1.40;;;15.80;1.00;;;;;;5051313;28;20063;-35
2023/04/11 10:57:20;;;;;;;7.40;1.70;;;15.80;1.00;;;;;;5051647;28;20044;-35
2023/04/11 10:59:50;;;;;;;7.85;1.35;;;15.80;1.00;;;;;;5051287;28;20049;-35
2023/04/11 11:02:20;;;;;;;2.55;0.73;;;15.80;1.00;;;;;;5051188;28;20048;-35
2023/04/11 11:04:48;;;;;;;4.63;1.27;;;15.80;1.00;;;;;;5051079;28;20040;-35
2023/04/11 11:07:16;;;;;;;4.15;1.00;;;15.80;1.00;;;;;;5051527;28;20111;-35
2023/04/11 11:09:48;;;;;;;4.18;1.45;;;15.80;1.00;;;;;;5051521;28;20045;-35
2023/04/11 11:12:15;;;;;;;5.50;0.90;;;15.80;1.00;;;;;;5051135;28;20080;-35
2023/04/11 11:14:45;;;;;;;7.95;1.67;;;15.80;1.00;;;;;;5050863;28;20540;-35
2023/04/11 11:17:13;;;;;;;4.53;1.10;;;15.80;1.00;;;;;;5051390;28;20045;-35
2023/04/11 11:19:47;;;;;;;6.13;1.30;;;15.90;1.00;;;;;;5051345;28;20063;-35
2023/04/11 11:22:24;;;;;;;10.45;1.17;;;15.90;1.00;;;;;;5051188;28;20095;-35
2023/04/11 11:24:51;;;;;;;2.25;1.00;;;15.90;1.00;;;;;;5050841;28;20066;-35
2023/04/11 11:27:19;;;;;;;3.28;0.80;;;15.90;1.00;;;;;;5051200;28;20052;-35
2023/04/11 11:29:46;;;;;;;4.57;1.20;;;15.90;1.00;;;;;;5051143;28;20041;-35
2023/04/11 11:32:26;;;;;;;5.63;1.63;;;15.90;1.00;;;;;;5051064;28;20124;-35
2023/04/11 11:34:54;;;;;;;4.50;0.77;;;15.90;1.00;;;;;;5050876;28;20102;-35
2023/04/11 11:37:21;;;;;;;5.15;1.08;;;15.90;1.00;;;;;;5054079;28;20120;-35
2023/04/11 11:39:49;;;;;;;2.75;0.70;;;15.90;1.00;;;;;;5054839;28;20051;-35
2023/04/11 11:42:17;;;;;;;2.97;1.00;;;15.90;1.00;;;;;;5054540;28;20053;-35
2023/04/11 11:44:43;;;;;;;4.93;1.45;;;15.90;1.00;;;;;;5054303;28;20453;-35
2023/04/11 11:47:13;;;;;;;5.10;1.15;;;15.90;1.00;;;;;;5054758;28;20083;-35
2023/04/11 11:49:46;;;;;;;4.60;0.90;;;15.90;1.00;;;;;;5054656;28;20051;-35
2023/04/11 11:52:38;;;;;;;6.82;1.98;;;15.90;1.00;;;;;;5054308;28;20049;-34
2023/04/11 11:55:26;;;;;;;5.32;1.45;;;15.90;1.00;;;;;;5054415;28;20385;-34
2023/04/11 11:57:53;;;;;;;10.27;2.30;;;15.90;1.00;;;;;;5054334;28;20048;-34
2023/04/11 12:00:24;;;;;;;7.97;1.67;;;15.90;1.00;;;;;;5054153;28;20045;-34
2023/04/11 12:02:53;;;;;;;7.75;1.58;;;15.90;1.00;;;;;;5053467;28;20041;-35
2023/04/11 12:05:22;;;;;;;6.93;1.55;;;15.90;1.00;;;;;;5054236;28;20489;-34
2023/04/11 12:07:57;;;;;;;5.85;1.08;;;15.90;1.00;;;;;;5054097;28;20554;-35
2023/04/11 12:10:34;;;;;;;7.97;1.00;;;15.90;1.00;;;;;;5054214;28;20041;-36
2023/04/11 12:13:01;;;;;;;12.38;2.15;;;15.90;1.00;;;;;;5053522;28;20048;-35
2023/04/11 12:15:27;;;;;;;10.10;1.70;;;15.90;1.00;;;;;;5053750;28;20049;-35
2023/04/11 12:17:54;;;;;;;7.35;1.75;;;15.90;1.00;;;;;;5054148;28;20049;-35
2023/04/11 12:20:23;;;;;;;10.73;1.75;;;15.90;1.00;;;;;;5053951;28;20041;-35
2023/04/11 12:22:49;;;;;;;6.07;1.75;;;15.90;1.00;;;;;;5053379;28;20037;-35
2023/04/11 12:25:21;;;;;;;16.00;2.85;;;15.90;1.00;;;;;;5053865;28;20079;-35
2023/04/11 12:27:48;;;;;;;8.15;1.90;;;15.80;1.00;;;;;;5054035;28;20124;-35
2023/04/11 12:30:15;;;;;;;8.20;1.20;;;15.90;1.00;;;;;;5054330;28;20049;-35
2023/04/11 12:32:43;;;;;;;7.82;1.77;;;15.80;1.00;;;;;;5053065;28;20036;-35
2023/04/11 12:35:11;;;;;;;7.43;1.33;;;15.80;1.00;;;;;;5053778;28;20099;-35
2023/04/11 12:37:39;;;;;;;8.98;1.88;;;15.80;1.00;;;;;;5054157;28;20041;-35
2023/04/11 12:40:14;;;;;;;4.53;1.15;;;15.80;1.00;;;;;;5054006;28;20037;-35
2023/04/11 12:42:42;;;;;;;3.17;1.25;;;15.80;1.00;;;;;;5053078;28;20432;-35
2023/04/11 12:45:21;;;;;;;5.75;1.65;;;15.80;1.00;;;;;;5053489;28;20048;-35
2023/04/11 12:47:48;;;;;;;9.70;2.00;;;15.80;1.00;;;;;;5052109;28;20107;-35
2023/04/11 12:50:15;;;;;;;9.73;1.40;;;15.80;1.00;;;;;;5053439;28;20080;-35
2023/04/11 12:52:42;;;;;;;9.48;2.17;;;15.80;1.00;;;;;;5052552;28;20481;-35
2023/04/11 12:55:09;;;;;;;5.50;1.27;;;15.80;1.00;;;;;;5052133;28;20052;-35
2023/04/11 12:57:36;;;;;;;4.70;1.33;;;15.80;1.00;;;;;;5053461;28;20217;-35
2023/04/11 13:00:05;;;;;;;6.07;1.48;;;15.80;1.00;;;;;;5053023;28;20041;-35
2023/04/11 13:02:32;;;;;;;4.82;1.00;;;15.80;1.00;;;;;;5052942;28;20041;-35
2023/04/11 13:05:09;;;;;;;5.13;0.77;;;15.80;1.00;;;;;;5052956;28;20489;-35
2023/04/11 13:07:36;;;;;;;7.20;1.20;;;15.80;1.00;;;;;;5053305;28;20381;-35